createdAt,value
2023-05-16T00:01:13.271Z,99051.69
2023-05-16T00:03:41.358Z,99045.75
2023-05-16T00:06:09.530Z,99045.41
2023-05-16T00:08:37.235Z,99041.31
2023-05-16T00:11:05.093Z,99041.06
2023-05-16T00:13:32.801Z,99028.53
2023-05-16T00:16:00.370Z,99029.72
2023-05-16T00:18:28.471Z,99023.72
2023-05-16T00:20:56.060Z,99021.72
2023-05-16T00:23:23.749Z,99019.78
2023-05-16T00:25:51.652Z,99010.44
2023-05-16T00:28:19.399Z,99008.25
2023-05-16T00:30:47.508Z,99014.72
2023-05-16T00:33:16.731Z,99022.38
2023-05-16T00:35:44.392Z,99021.25
2023-05-16T00:38:12.139Z,99016.28
2023-05-16T00:40:40.198Z,99005.63
2023-05-16T00:43:10.460Z,99010.13
2023-05-16T00:45:38.033Z,99008.91
2023-05-16T00:48:06.097Z,99003.50
2023-05-16T00:50:34.385Z,99010.19
2023-05-16T00:53:02.238Z,99019.09
2023-05-16T00:55:30.260Z,99018.09
2023-05-16T00:57:58.245Z,99027.22
2023-05-16T01:00:26.328Z,99025.53
2023-05-16T01:02:54.773Z,99023.06
2023-05-16T01:05:22.476Z,99029.06
2023-05-16T01:07:50.106Z,99033.44
2023-05-16T01:10:18.159Z,99042.91
2023-05-16T01:12:53.537Z,99038.66
2023-05-16T01:15:30.924Z,99041.78
2023-05-16T01:18:25.602Z,99044.41
2023-05-16T01:21:00.195Z,99045.72
2023-05-16T01:23:31.721Z,99046.31
2023-05-16T01:26:11.393Z,99036.41
2023-05-16T01:28:39.618Z,99021.50
2023-05-16T01:31:07.614Z,99035.94
2023-05-16T01:33:35.294Z,99052.06
2023-05-16T01:36:32.088Z,99049.81
2023-05-16T01:39:27.358Z,99043.50
2023-05-16T01:42:03.934Z,99027.72
2023-05-16T01:44:36.349Z,99006.78
2023-05-16T01:47:10.216Z,99003.97
2023-05-16T01:49:45.573Z,98997.63
2023-05-16T01:52:20.373Z,98997.63
2023-05-16T01:54:49.138Z,98997.19
2023-05-16T01:57:17.297Z,99005.75
2023-05-16T01:59:47.119Z,98997.31
2023-05-16T02:02:18.426Z,98984.25
2023-05-16T02:04:46.614Z,98984.22
2023-05-16T02:07:15.212Z,98972.75
2023-05-16T02:09:42.880Z,98976.22
2023-05-16T02:12:10.810Z,98977.47
2023-05-16T02:14:38.569Z,98982.09
2023-05-16T02:17:07.386Z,98981.63
2023-05-16T02:19:35.048Z,98986.38
2023-05-16T02:22:02.707Z,98991.00
2023-05-16T02:24:30.625Z,98980.06
2023-05-16T02:26:58.450Z,98976.81
2023-05-16T02:29:26.193Z,98964.31
2023-05-16T02:31:54.452Z,98952.81
2023-05-16T02:34:22.145Z,98941.44
2023-05-16T02:36:49.856Z,98947.75
2023-05-16T02:39:17.885Z,98951.81
2023-05-16T02:41:45.539Z,98954.50
2023-05-16T02:44:13.140Z,98957.31
2023-05-16T02:46:42.542Z,98952.59
2023-05-16T02:49:10.897Z,98943.66
2023-05-16T02:51:39.637Z,98957.94
2023-05-16T02:54:07.696Z,98949.50
2023-05-16T02:56:36.105Z,98954.00
2023-05-16T02:59:04.545Z,98961.53
2023-05-16T03:01:32.714Z,98971.00
2023-05-16T03:04:00.501Z,98977.75
2023-05-16T03:06:28.326Z,98983.72
2023-05-16T03:08:56.299Z,98976.50
2023-05-16T03:11:23.936Z,98969.19
2023-05-16T03:13:51.665Z,98958.06
2023-05-16T03:16:19.681Z,98957.50
2023-05-16T03:18:47.797Z,98952.09
2023-05-16T03:21:15.485Z,98945.56
2023-05-16T03:23:45.600Z,98938.91
2023-05-16T03:26:13.254Z,98938.38
2023-05-16T03:28:40.935Z,98951.19
2023-05-16T03:31:08.960Z,98962.44
2023-05-16T03:33:36.677Z,98972.81
2023-05-16T03:36:04.434Z,98968.97
2023-05-16T03:38:32.377Z,98971.78
2023-05-16T03:40:59.985Z,98968.47
2023-05-16T03:43:27.557Z,98972.44
2023-05-16T03:45:55.798Z,98969.38
2023-05-16T03:48:23.504Z,98958.06
2023-05-16T03:50:51.100Z,98953.00
2023-05-16T03:53:19.127Z,98944.31
2023-05-16T03:55:48.103Z,98955.31
2023-05-16T03:58:16.537Z,98958.13
2023-05-16T04:00:44.449Z,98952.31
2023-05-16T04:03:12.537Z,98946.06
2023-05-16T04:05:40.281Z,98944.16
2023-05-16T04:08:07.952Z,98955.53
2023-05-16T04:10:35.867Z,98966.22
2023-05-16T04:13:03.481Z,98971.41
2023-05-16T04:15:31.135Z,98978.72
2023-05-16T04:17:59.130Z,98980.63
2023-05-16T04:20:26.876Z,98995.06
2023-05-16T04:22:54.749Z,98992.00
2023-05-16T04:25:22.646Z,98992.03
2023-05-16T04:27:50.368Z,98985.56
2023-05-16T04:30:19.123Z,98983.00
2023-05-16T04:32:47.046Z,98987.28
2023-05-16T04:35:14.760Z,99001.69
2023-05-16T04:37:42.457Z,99009.13
2023-05-16T04:40:10.834Z,99006.41
2023-05-16T04:42:38.444Z,98996.06
2023-05-16T04:45:06.882Z,98994.16
2023-05-16T04:47:34.902Z,98988.63
2023-05-16T04:50:03.234Z,98986.72
2023-05-16T04:52:31.088Z,98989.44
2023-05-16T04:54:59.050Z,98998.31
2023-05-16T04:57:27.169Z,99000.56
2023-05-16T04:59:55.056Z,98996.06
2023-05-16T05:02:23.087Z,98987.59
2023-05-16T05:04:50.793Z,98988.75
2023-05-16T05:07:18.436Z,98990.44
2023-05-16T05:09:46.286Z,98986.25
2023-05-16T05:12:13.860Z,98991.00
2023-05-16T05:14:41.520Z,98994.13
2023-05-16T05:17:09.471Z,98999.69
2023-05-16T05:19:37.216Z,98999.75
2023-05-16T05:22:05.357Z,99003.69
2023-05-16T05:24:33.425Z,99003.59
2023-05-16T05:27:01.410Z,99001.25
2023-05-16T05:29:29.053Z,99001.81
2023-05-16T05:31:57.013Z,98998.62
2023-05-16T05:34:24.659Z,98999.88
2023-05-16T05:36:52.328Z,99004.72
2023-05-16T05:39:20.372Z,99005.63
2023-05-16T05:41:48.091Z,98995.81
2023-05-16T05:44:15.800Z,98990.31
2023-05-16T05:46:43.877Z,99004.03
2023-05-16T05:49:11.613Z,99005.97
2023-05-16T05:51:39.289Z,99010.03
2023-05-16T05:54:07.222Z,99010.81
2023-05-16T05:56:34.908Z,99006.19
2023-05-16T05:59:02.485Z,98995.13
2023-05-16T06:01:30.390Z,98991.53
2023-05-16T06:03:59.688Z,98987.59
2023-05-16T06:06:29.424Z,98994.59
2023-05-16T06:08:57.262Z,98988.28
2023-05-16T06:11:25.317Z,98998.28
2023-05-16T06:13:53.228Z,98991.97
2023-05-16T06:16:24.940Z,98995.37
2023-05-16T06:18:53.133Z,98997.41
2023-05-16T06:21:20.843Z,98986.91
2023-05-16T06:23:48.437Z,98986.56
2023-05-16T06:26:16.352Z,98991.31
2023-05-16T06:28:44.048Z,98978.81
2023-05-16T06:31:11.696Z,98983.94
2023-05-16T06:33:39.578Z,98976.41
2023-05-16T06:36:07.452Z,98976.66
2023-05-16T06:38:35.027Z,98969.31
2023-05-16T06:41:02.960Z,98966.38
2023-05-16T06:43:30.616Z,98976.03
2023-05-16T06:45:58.295Z,98982.69
2023-05-16T06:48:26.297Z,98980.59
2023-05-16T06:50:54.380Z,98995.22
2023-05-16T06:53:22.134Z,99010.00
2023-05-16T06:55:50.015Z,99006.03
2023-05-16T06:58:17.790Z,99004.44
2023-05-16T07:00:45.534Z,99007.63
2023-05-16T07:03:13.758Z,99009.06
2023-05-16T07:05:41.604Z,99015.41
2023-05-16T07:08:09.626Z,99012.16
2023-05-16T07:10:37.703Z,99010.97
2023-05-16T07:13:05.689Z,99004.91
2023-05-16T07:15:33.430Z,98991.97
2023-05-16T07:18:02.131Z,98991.53
2023-05-16T07:20:33.248Z,98976.66
2023-05-16T07:23:01.196Z,98968.19
2023-05-16T07:25:29.274Z,98965.03
2023-05-16T07:27:57.039Z,98968.97
2023-05-16T07:30:25.047Z,98969.91
2023-05-16T07:32:52.931Z,98981.16
2023-05-16T07:35:20.703Z,98985.44
2023-05-16T07:37:48.721Z,98976.22
2023-05-16T07:40:16.325Z,98978.47
2023-05-16T07:42:44.319Z,98967.75
2023-05-16T07:45:12.351Z,98968.34
2023-05-16T07:47:40.041Z,98964.50
2023-05-16T07:50:08.017Z,98962.78
2023-05-16T07:52:36.085Z,98962.34
2023-05-16T07:55:04.282Z,98963.13
2023-05-16T07:57:32.006Z,98955.66
2023-05-16T08:00:00.075Z,98964.59
2023-05-16T08:02:27.930Z,98962.00
2023-05-16T08:04:59.184Z,98956.50
2023-05-16T08:07:26.917Z,98952.88
2023-05-16T08:09:55.293Z,98954.16
2023-05-16T08:12:24.481Z,98948.38
2023-05-16T08:14:52.205Z,98943.22
2023-05-16T08:17:19.896Z,98941.16
2023-05-16T08:19:47.897Z,98950.97
2023-05-16T08:22:15.620Z,98953.50
2023-05-16T08:24:43.228Z,98949.25
2023-05-16T08:27:11.139Z,98946.34
2023-05-16T08:29:38.790Z,98947.59
2023-05-16T08:32:06.741Z,98946.69
2023-05-16T08:34:34.600Z,98937.78
2023-05-16T08:37:02.345Z,98945.06
2023-05-16T08:39:29.917Z,98931.53
2023-05-16T08:41:57.891Z,98924.31
2023-05-16T08:44:26.199Z,98924.31
2023-05-16T08:46:54.842Z,98920.88
2023-05-16T08:49:23.305Z,98927.56
2023-05-16T08:51:52.323Z,98940.63
2023-05-16T08:54:20.283Z,98941.25
2023-05-16T08:56:48.928Z,98936.63
2023-05-16T08:59:16.995Z,98940.38
2023-05-16T09:01:44.863Z,98943.16
2023-05-16T09:04:13.076Z,98940.81
2023-05-16T09:06:41.065Z,98936.75
2023-05-16T09:09:08.760Z,98941.03
2023-05-16T09:11:37.217Z,98947.09
2023-05-16T09:14:05.333Z,98943.16
2023-05-16T09:16:32.975Z,98938.25
2023-05-16T09:19:02.008Z,98938.84
2023-05-16T09:21:31.419Z,98935.66
2023-05-16T09:24:09.591Z,98934.41
2023-05-16T09:26:56.234Z,98924.59
2023-05-16T09:29:23.923Z,98921.63
2023-05-16T09:31:51.987Z,98922.94
2023-05-16T09:34:23.289Z,98934.09
2023-05-16T09:36:54.945Z,98943.31
2023-05-16T09:39:27.475Z,98937.09
2023-05-16T09:41:55.405Z,98940.38
2023-05-16T09:44:23.340Z,98939.56
2023-05-16T09:46:51.023Z,98946.22
2023-05-16T09:49:18.807Z,98934.09
2023-05-16T09:51:47.018Z,98930.28
2023-05-16T09:54:14.718Z,98934.22
2023-05-16T09:56:51.748Z,98939.16
2023-05-16T09:59:19.771Z,98933.31
2023-05-16T10:01:47.576Z,98933.59
2023-05-16T10:04:15.767Z,98939.81
2023-05-16T10:06:43.554Z,98933.69
2023-05-16T10:09:12.183Z,98945.66
2023-05-16T10:11:42.241Z,98942.25
2023-05-16T10:14:11.271Z,98929.62
2023-05-16T10:16:43.296Z,98918.56
2023-05-16T10:19:11.543Z,98924.56
2023-05-16T10:21:40.744Z,98921.00
2023-05-16T10:24:11.129Z,98923.44
2023-05-16T10:26:39.136Z,98913.38
2023-05-16T10:29:07.062Z,98910.50
2023-05-16T10:31:35.082Z,98894.44
2023-05-16T10:34:03.662Z,98883.91
2023-05-16T10:36:31.548Z,98895.94
2023-05-16T10:38:59.448Z,98891.16
2023-05-16T10:41:27.555Z,98889.31
2023-05-16T10:43:58.945Z,98893.41
2023-05-16T10:46:28.136Z,98881.78
2023-05-16T10:48:57.892Z,98875.31
2023-05-16T10:51:32.537Z,98871.94
2023-05-16T10:54:09.983Z,98879.34
2023-05-16T10:56:37.874Z,98884.78
2023-05-16T10:59:22.923Z,98876.12
2023-05-16T11:01:55.604Z,98872.53
2023-05-16T11:04:23.901Z,98872.37
2023-05-16T11:06:52.831Z,98876.28
2023-05-16T11:09:25.396Z,98869.94
2023-05-16T11:11:56.919Z,98862.84
2023-05-16T11:14:25.882Z,98853.31
2023-05-16T11:17:13.374Z,98841.87
2023-05-16T11:19:49.157Z,98850.87
2023-05-16T11:22:19.808Z,98843.19
2023-05-16T11:25:09.787Z,98835.41
2023-05-16T11:27:44.227Z,98830.97
2023-05-16T11:30:16.608Z,98821.78
2023-05-16T11:32:46.736Z,98814.00
2023-05-16T11:35:16.207Z,98798.84
2023-05-16T11:37:45.210Z,98806.22
2023-05-16T11:40:13.732Z,98818.44
2023-05-16T11:42:43.548Z,98823.91
2023-05-16T11:45:12.852Z,98809.22
2023-05-16T11:47:41.767Z,98813.88
2023-05-16T11:50:14.774Z,98813.00
2023-05-16T11:52:44.405Z,98803.81
2023-05-16T11:55:12.098Z,98803.94
2023-05-16T11:57:39.786Z,98795.44
2023-05-16T12:00:19.055Z,98796.53
2023-05-16T12:02:47.898Z,98796.97
2023-05-16T12:05:16.784Z,98793.31
2023-05-16T12:07:45.427Z,98800.47
2023-05-16T12:10:14.804Z,98791.59
2023-05-16T12:12:45.143Z,98800.66
2023-05-16T12:15:13.321Z,98796.84
2023-05-16T12:17:41.583Z,98791.75
2023-05-16T12:20:11.094Z,98787.56
2023-05-16T12:22:40.070Z,98793.00
2023-05-16T12:25:25.988Z,98797.94
2023-05-16T12:28:01.944Z,98799.72
2023-05-16T12:30:32.330Z,98807.94
2023-05-16T12:33:05.779Z,98795.56
2023-05-16T12:35:37.529Z,98802.59
2023-05-16T12:38:06.752Z,98798.88
2023-05-16T12:40:39.429Z,98797.88
2023-05-16T12:43:20.966Z,98792.81
2023-05-16T12:45:56.264Z,98793.31
2023-05-16T12:48:32.149Z,98792.81
2023-05-16T12:51:29.605Z,98787.31
2023-05-16T12:54:09.383Z,98784.13
2023-05-16T12:56:39.772Z,98789.09
2023-05-16T12:59:08.485Z,98793.66
2023-05-16T13:01:36.643Z,98796.44
2023-05-16T13:04:05.083Z,98796.31
2023-05-16T13:06:48.820Z,98787.25
2023-05-16T13:09:20.987Z,98790.94
2023-05-16T13:11:49.318Z,98793.97
2023-05-16T13:14:16.994Z,98781.19
2023-05-16T13:16:44.793Z,98788.25
2023-05-16T13:19:12.849Z,98777.12
2023-05-16T13:21:40.616Z,98769.91
2023-05-16T13:24:08.359Z,98771.84
2023-05-16T13:26:36.282Z,98765.03
2023-05-16T13:29:03.965Z,98749.72
2023-05-16T13:31:31.831Z,98741.66
2023-05-16T13:33:59.909Z,98729.59
2023-05-16T13:36:28.713Z,98726.97
2023-05-16T13:39:01.314Z,98720.69
2023-05-16T13:41:28.998Z,98724.72
2023-05-16T13:43:56.516Z,98722.38
2023-05-16T13:46:24.472Z,98708.31
2023-05-16T13:48:52.160Z,98696.88
2023-05-16T13:51:19.896Z,98699.69
2023-05-16T13:53:48.104Z,98699.69
2023-05-16T13:56:15.705Z,98711.06
2023-05-16T13:58:59.790Z,98713.91
2023-05-16T14:01:30.592Z,98704.81
2023-05-16T14:03:58.635Z,98690.41
2023-05-16T14:06:26.952Z,98680.53
2023-05-16T14:08:57.827Z,98683.25
2023-05-16T14:11:28.827Z,98692.13
2023-05-16T14:13:57.901Z,98686.09
2023-05-16T14:16:26.158Z,98693.69
2023-05-16T14:18:53.989Z,98701.72
2023-05-16T14:21:21.588Z,98702.50
2023-05-16T14:23:49.546Z,98712.22
2023-05-16T14:26:17.279Z,98712.37
2023-05-16T14:28:46.698Z,98714.78
2023-05-16T14:31:14.759Z,98711.72
2023-05-16T14:33:42.354Z,98714.50
2023-05-16T14:36:10.193Z,98717.44
2023-05-16T14:38:38.112Z,98718.16
2023-05-16T14:41:05.743Z,98725.00
2023-05-16T14:43:33.502Z,98715.66
2023-05-16T14:46:01.486Z,98716.25
2023-05-16T14:48:29.194Z,98711.44
2023-05-16T14:50:56.902Z,98710.22
2023-05-16T14:53:24.855Z,98696.31
2023-05-16T14:55:52.783Z,98682.56
2023-05-16T14:58:20.530Z,98697.75
2023-05-16T15:00:48.550Z,98687.69
2023-05-16T15:03:19.307Z,98685.84
2023-05-16T15:05:47.029Z,98697.53
2023-05-16T15:08:15.049Z,98706.37
2023-05-16T15:10:42.810Z,98695.97
2023-05-16T15:13:10.773Z,98700.41
2023-05-16T15:15:38.833Z,98702.94
2023-05-16T15:18:06.589Z,98708.09
2023-05-16T15:20:34.319Z,98710.63
2023-05-16T15:23:02.287Z,98701.72
2023-05-16T15:25:30.275Z,98708.81
2023-05-16T15:27:58.036Z,98700.13
2023-05-16T15:30:26.054Z,98695.53
2023-05-16T15:32:53.924Z,98696.38
2023-05-16T15:35:21.714Z,98696.97
2023-05-16T15:37:49.685Z,98695.56
2023-05-16T15:40:17.726Z,98690.97
2023-05-16T15:42:45.382Z,98698.66
2023-05-16T15:45:13.422Z,98696.13
2023-05-16T15:47:41.688Z,98682.16
2023-05-16T15:50:09.974Z,98681.78
2023-05-16T15:52:39.276Z,98690.03
2023-05-16T15:55:07.120Z,98681.66
2023-05-16T15:57:34.832Z,98687.69
2023-05-16T16:00:02.862Z,98679.84
2023-05-16T16:02:39.699Z,98683.63
2023-05-16T16:05:08.325Z,98677.16
2023-05-16T16:07:36.088Z,98683.91
2023-05-16T16:10:03.900Z,98671.78
2023-05-16T16:12:32.171Z,98670.22
2023-05-16T16:14:59.939Z,98675.72
2023-05-16T16:17:27.798Z,98674.37
2023-05-16T16:19:55.935Z,98677.63
2023-05-16T16:22:23.799Z,98671.56
2023-05-16T16:24:51.448Z,98672.56
2023-05-16T16:27:19.433Z,98669.56
2023-05-16T16:29:47.070Z,98668.84
2023-05-16T16:32:14.709Z,98674.00
2023-05-16T16:34:42.727Z,98670.59
2023-05-16T16:37:10.474Z,98668.38
2023-05-16T16:42:06.886Z,98679.84
2023-05-16T16:44:34.633Z,98667.59
2023-05-16T16:47:02.398Z,98679.12
2023-05-16T16:49:30.793Z,98677.78
2023-05-16T16:51:58.567Z,98656.59
2023-05-16T16:54:26.250Z,98663.53
2023-05-16T16:56:54.523Z,98657.69
2023-05-16T16:59:22.241Z,98646.13
2023-05-16T17:01:50.448Z,98641.12
2023-05-16T17:04:18.523Z,98640.28
2023-05-16T17:06:48.398Z,98634.88
2023-05-16T17:09:16.908Z,98640.84
2023-05-16T17:11:45.622Z,98641.91
2023-05-16T17:14:13.733Z,98653.53
2023-05-16T17:16:41.490Z,98652.41
2023-05-16T17:19:10.289Z,98640.53
2023-05-16T17:21:39.032Z,98643.41
2023-05-16T17:24:07.534Z,98645.00
2023-05-16T17:26:36.008Z,98657.81
2023-05-16T17:29:03.696Z,98661.88
2023-05-16T17:31:31.540Z,98656.81
2023-05-16T17:33:59.594Z,98672.28
2023-05-16T17:36:30.402Z,98678.28
2023-05-16T17:38:58.031Z,98673.28
2023-05-16T17:41:26.182Z,98658.66
2023-05-16T17:43:54.317Z,98669.16
2023-05-16T17:46:22.177Z,98662.59
2023-05-16T17:48:50.702Z,98661.50
2023-05-16T17:51:18.729Z,98667.16
2023-05-16T17:53:46.556Z,98664.09
2023-05-16T17:56:14.747Z,98666.38
2023-05-16T17:58:43.493Z,98668.72
2023-05-16T18:01:11.630Z,98671.00
2023-05-16T18:03:39.795Z,98678.50
2023-05-16T18:06:07.857Z,98679.78
2023-05-16T18:08:35.929Z,98672.94
2023-05-16T18:11:04.365Z,98669.75
2023-05-16T18:13:32.069Z,98669.09
2023-05-16T18:16:00.180Z,98674.69
2023-05-16T18:18:28.797Z,98675.50
2023-05-16T18:20:57.233Z,98677.28
2023-05-16T18:23:26.234Z,98671.88
2023-05-16T18:25:55.095Z,98673.06
2023-05-16T18:28:22.902Z,98669.28
2023-05-16T18:30:50.671Z,98665.72
2023-05-16T18:33:18.659Z,98667.66
2023-05-16T18:35:46.569Z,98673.84
2023-05-16T18:38:28.133Z,98671.50
2023-05-16T18:41:01.002Z,98668.50
2023-05-16T18:43:29.900Z,98669.28
2023-05-16T18:45:57.604Z,98670.59
2023-05-16T18:48:25.719Z,98670.41
2023-05-16T18:50:53.832Z,98669.88
2023-05-16T18:53:21.651Z,98666.72
2023-05-16T18:55:50.019Z,98672.81
2023-05-16T18:58:17.953Z,98667.28
2023-05-16T19:00:46.282Z,98673.13
2023-05-16T19:03:14.417Z,98687.38
2023-05-16T19:05:42.603Z,98681.84
2023-05-16T19:08:10.632Z,98680.84
2023-05-16T19:10:40.048Z,98688.63
2023-05-16T19:13:08.312Z,98675.34
2023-05-16T19:15:37.900Z,98676.19
2023-05-16T19:18:08.949Z,98671.94
2023-05-16T19:20:37.068Z,98676.91
2023-05-16T19:23:05.038Z,98683.19
2023-05-16T19:25:33.008Z,98696.13
2023-05-16T19:28:00.681Z,98695.69
2023-05-16T19:30:28.615Z,98690.63
2023-05-16T19:32:57.112Z,98680.84
2023-05-16T19:35:25.049Z,98693.53
2023-05-16T19:37:52.703Z,98702.88
2023-05-16T19:40:20.887Z,98694.41
2023-05-16T19:42:48.632Z,98683.78
2023-05-16T19:45:16.283Z,98691.53
2023-05-16T19:47:44.897Z,98694.31
2023-05-16T19:50:12.745Z,98695.34
2023-05-16T19:52:40.359Z,98687.56
2023-05-16T19:55:08.571Z,98686.97
2023-05-16T19:57:36.316Z,98689.19
2023-05-16T20:00:04.512Z,98693.03
2023-05-16T20:02:40.432Z,98693.41
2023-05-16T20:05:08.851Z,98686.59
2023-05-16T20:07:36.570Z,98690.28
2023-05-16T20:10:04.508Z,98687.69
2023-05-16T20:12:32.519Z,98681.25
2023-05-16T20:15:00.266Z,98678.28
2023-05-16T20:17:27.936Z,98685.94
2023-05-16T20:19:56.307Z,98682.06
2023-05-16T20:22:24.010Z,98685.62
2023-05-16T20:24:51.742Z,98691.78
2023-05-16T20:27:19.699Z,98689.19
2023-05-16T20:29:48.029Z,98684.56
2023-05-16T20:32:15.882Z,98684.06
2023-05-16T20:34:43.831Z,98682.13
2023-05-16T20:37:11.436Z,98677.88
2023-05-16T20:39:39.210Z,98690.03
2023-05-16T20:42:07.495Z,98690.53
2023-05-16T20:44:35.162Z,98682.78
2023-05-16T20:47:02.813Z,98675.03
2023-05-16T20:49:30.798Z,98671.00
2023-05-16T20:51:58.498Z,98674.22
2023-05-16T20:54:26.138Z,98669.56
2023-05-16T20:56:54.199Z,98674.22
2023-05-16T20:59:21.853Z,98672.72
2023-05-16T21:01:49.494Z,98676.38
2023-05-16T21:04:17.870Z,98674.22
2023-05-16T21:06:45.741Z,98674.63
2023-05-16T21:09:13.469Z,98676.78
2023-05-16T21:11:41.425Z,98676.13
2023-05-16T21:14:09.012Z,98680.66
2023-05-16T21:16:37.279Z,98692.97
2023-05-16T21:19:05.411Z,98681.81
2023-05-16T21:21:33.194Z,98689.06
2023-05-16T21:24:00.805Z,98691.56
2023-05-16T21:26:28.656Z,98691.47
2023-05-16T21:28:56.511Z,98696.38
2023-05-16T21:31:24.213Z,98699.00
2023-05-16T21:33:52.615Z,98692.28
2023-05-16T21:36:20.812Z,98696.47
2023-05-16T21:38:48.612Z,98697.84
2023-05-16T21:41:16.763Z,98694.50
2023-05-16T21:43:44.494Z,98692.13
2023-05-16T21:46:12.206Z,98696.50
2023-05-16T21:48:40.354Z,98704.47
2023-05-16T21:51:08.086Z,98691.50
2023-05-16T21:53:35.822Z,98685.81
2023-05-16T21:56:05.358Z,98695.41
2023-05-16T21:58:33.035Z,98692.28
2023-05-16T22:01:00.676Z,98692.63
2023-05-16T22:03:28.742Z,98685.72
2023-05-16T22:05:56.724Z,98685.81
2023-05-16T22:08:24.797Z,98685.38
2023-05-16T22:10:52.660Z,98674.31
2023-05-16T22:13:20.540Z,98675.03
2023-05-16T22:16:03.343Z,98674.22
2023-05-16T22:18:33.209Z,98665.06
2023-05-16T22:21:01.623Z,98667.91
2023-05-16T22:23:29.507Z,98666.72
2023-05-16T22:25:57.473Z,98669.50
2023-05-16T22:28:25.158Z,98674.63
2023-05-16T22:30:52.999Z,98667.37
2023-05-16T22:33:21.115Z,98668.50
2023-05-16T22:35:49.344Z,98660.50
2023-05-16T22:38:17.020Z,98673.88
2023-05-16T22:40:44.968Z,98676.81
2023-05-16T22:43:12.679Z,98674.75
2023-05-16T22:45:40.438Z,98671.41
2023-05-16T22:48:08.588Z,98668.00
2023-05-16T22:50:36.384Z,98678.84
2023-05-16T22:53:03.986Z,98674.09
2023-05-16T22:55:31.967Z,98679.12
2023-05-16T22:57:59.885Z,98678.53
2023-05-16T23:00:27.507Z,98674.03
2023-05-16T23:02:55.763Z,98679.38
2023-05-16T23:05:23.394Z,98680.13
2023-05-16T23:07:51.056Z,98671.31
2023-05-16T23:10:19.050Z,98679.09
2023-05-16T23:12:46.715Z,98680.25
2023-05-16T23:15:14.457Z,98681.72
2023-05-16T23:17:42.577Z,98691.03
2023-05-16T23:20:10.506Z,98693.41
2023-05-16T23:22:38.182Z,98697.13
2023-05-16T23:25:06.805Z,98692.22
2023-05-16T23:27:34.443Z,98695.25
2023-05-16T23:30:02.120Z,98692.44
2023-05-16T23:32:30.450Z,98694.28
2023-05-16T23:34:58.115Z,98703.34
2023-05-16T23:37:25.937Z,98691.59
2023-05-16T23:39:54.055Z,98701.91
2023-05-16T23:42:21.800Z,98693.44
2023-05-16T23:44:49.518Z,98693.94
2023-05-16T23:47:17.465Z,98694.38
2023-05-16T23:49:45.112Z,98695.41
2023-05-16T23:52:13.841Z,98695.31
2023-05-16T23:54:41.737Z,98697.16
2023-05-16T23:57:09.282Z,98694.78
2023-05-16T23:59:37.085Z,98694.38
